sensor_id;sensor_type;location;lat;lon;timestamp;pressure;altitude;pressure_sealevel;temperature;humidity
18697;BME280;22617;43.690;27.956;2023-03-08T00:04:38;98081.50;;;6.28;78.08
18697;BME280;22617;43.690;27.956;2023-03-08T00:09:43;98073.59;;;6.72;78.04
18697;BME280;22617;43.690;27.956;2023-03-08T00:14:47;98068.34;;;6.93;77.46
18697;BME280;22617;43.690;27.956;2023-03-08T00:19:51;98072.59;;;7.08;76.56
18697;BME280;22617;43.690;27.956;2023-03-08T00:24:56;98067.41;;;7.06;76.44
18697;BME280;22617;43.690;27.956;2023-03-08T00:30:00;98062.38;;;6.74;76.37
18697;BME280;22617;43.690;27.956;2023-03-08T00:35:06;98062.41;;;6.65;77.17
18697;BME280;22617;43.690;27.956;2023-03-08T00:40:14;98059.00;;;6.52;77.56
18697;BME280;22617;43.690;27.956;2023-03-08T00:45:17;98059.94;;;6.29;77.15
18697;BME280;22617;43.690;27.956;2023-03-08T00:50:21;98052.19;;;6.23;78.28
18697;BME280;22617;43.690;27.956;2023-03-08T00:55:26;98050.44;;;6.35;78.58
18697;BME280;22617;43.690;27.956;2023-03-08T01:00:29;98050.38;;;6.49;79.56
18697;BME280;22617;43.690;27.956;2023-03-08T01:05:38;98043.56;;;6.33;77.65
18697;BME280;22617;43.690;27.956;2023-03-08T01:10:47;98041.03;;;6.04;77.12
18697;BME280;22617;43.690;27.956;2023-03-08T01:15:51;98047.91;;;5.82;77.81
18697;BME280;22617;43.690;27.956;2023-03-08T01:20:55;98043.59;;;5.96;78.69
18697;BME280;22617;43.690;27.956;2023-03-08T01:26:03;98043.59;;;6.11;77.41
18697;BME280;22617;43.690;27.956;2023-03-08T01:31:09;98040.13;;;6.09;76.35
18697;BME280;22617;43.690;27.956;2023-03-08T01:36:16;98032.41;;;5.65;75.31
18697;BME280;22617;43.690;27.956;2023-03-08T01:41:23;98042.75;;;5.62;77.62
18697;BME280;22617;43.690;27.956;2023-03-08T01:46:28;98034.13;;;5.69;77.35
18697;BME280;22617;43.690;27.956;2023-03-08T01:51:59;98038.44;;;5.72;78.00
18697;BME280;22617;43.690;27.956;2023-03-08T01:57:08;98036.69;;;5.82;78.28
18697;BME280;22617;43.690;27.956;2023-03-08T02:02:14;98027.22;;;6.05;77.82
18697;BME280;22617;43.690;27.956;2023-03-08T02:07:20;98033.19;;;6.30;77.37
18697;BME280;22617;43.690;27.956;2023-03-08T02:12:26;98025.44;;;6.31;77.17
18697;BME280;22617;43.690;27.956;2023-03-08T02:17:31;98027.13;;;6.34;77.28
18697;BME280;22617;43.690;27.956;2023-03-08T02:22:38;98025.41;;;6.46;77.93
18697;BME280;22617;43.690;27.956;2023-03-08T02:27:42;98027.25;;;5.97;75.82
18697;BME280;22617;43.690;27.956;2023-03-08T02:32:46;98032.41;;;5.65;75.86
18697;BME280;22617;43.690;27.956;2023-03-08T02:37:51;98037.56;;;5.40;77.38
18697;BME280;22617;43.690;27.956;2023-03-08T02:42:54;98037.56;;;6.02;78.12
18697;BME280;22617;43.690;27.956;2023-03-08T02:47:58;98040.16;;;6.12;77.95
18697;BME280;22617;43.690;27.956;2023-03-08T02:53:04;98032.41;;;5.87;77.34
18697;BME280;22617;43.690;27.956;2023-03-08T02:58:08;98034.13;;;5.97;78.28
18697;BME280;22617;43.690;27.956;2023-03-08T03:03:12;98034.97;;;5.67;77.08
18697;BME280;22617;43.690;27.956;2023-03-08T03:08:17;98035.84;;;5.74;77.98
18697;BME280;22617;43.690;27.956;2023-03-08T03:13:21;98025.53;;;5.89;77.39
18697;BME280;22617;43.690;27.956;2023-03-08T03:18:26;98041.03;;;5.80;77.02
18697;BME280;22617;43.690;27.956;2023-03-08T03:23:31;98035.00;;;5.79;76.11
18697;BME280;22617;43.690;27.956;2023-03-08T03:28:36;98043.59;;;5.78;76.12
18697;BME280;22617;43.690;27.956;2023-03-08T03:33:39;98045.34;;;5.70;76.05
18697;BME280;22617;43.690;27.956;2023-03-08T03:38:44;98042.75;;;5.62;76.53
18697;BME280;22617;43.690;27.956;2023-03-08T03:43:49;98048.78;;;5.70;77.06
18697;BME280;22617;43.690;27.956;2023-03-08T03:48:53;98057.41;;;5.65;76.42
18697;BME280;22617;43.690;27.956;2023-03-08T03:54:00;98050.50;;;5.70;76.34
18697;BME280;22617;43.690;27.956;2023-03-08T03:59:04;98041.88;;;5.80;76.07
18697;BME280;22617;43.690;27.956;2023-03-08T04:04:08;98043.59;;;5.84;76.12
18697;BME280;22617;43.690;27.956;2023-03-08T04:09:17;98039.28;;;5.86;75.60
18697;BME280;22617;43.690;27.956;2023-03-08T04:14:33;98032.38;;;5.81;75.69
18697;BME280;22617;43.690;27.956;2023-03-08T04:19:38;98028.09;;;5.74;75.82
18697;BME280;22617;43.690;27.956;2023-03-08T04:24:44;98032.38;;;5.27;74.97
18697;BME280;22617;43.690;27.956;2023-03-08T04:29:54;98048.53;;;4.57;77.92
18697;BME280;22617;43.690;27.956;2023-03-08T04:34:58;98040.06;;;4.93;80.47
18697;BME280;22617;43.690;27.956;2023-03-08T04:40:07;98033.22;;;5.11;80.14
18697;BME280;22617;43.690;27.956;2023-03-08T04:45:18;98043.59;;;5.30;79.31
18697;BME280;22617;43.690;27.956;2023-03-08T04:50:21;98059.06;;;5.23;78.92
18697;BME280;22617;43.690;27.956;2023-03-08T04:55:30;98062.56;;;5.45;80.20
18697;BME280;22617;43.690;27.956;2023-03-08T05:00:34;98066.88;;;5.54;80.57
18697;BME280;22617;43.690;27.956;2023-03-08T05:05:43;98065.16;;;5.69;81.13
18697;BME280;22617;43.690;27.956;2023-03-08T05:10:52;98060.88;;;5.90;80.24
18697;BME280;22617;43.690;27.956;2023-03-08T05:16:05;98076.34;;;6.14;80.19
18697;BME280;22617;43.690;27.956;2023-03-08T05:21:12;98079.78;;;6.14;79.59
18697;BME280;22617;43.690;27.956;2023-03-08T05:26:18;98076.25;;;6.60;78.74
18697;BME280;22617;43.690;27.956;2023-03-08T05:31:23;98076.16;;;6.76;78.72
18697;BME280;22617;43.690;27.956;2023-03-08T05:36:29;98074.34;;;7.03;78.83
18697;BME280;22617;43.690;27.956;2023-03-08T05:41:35;98062.88;;;7.40;79.13
18697;BME280;22617;43.690;27.956;2023-03-08T05:46:39;98070.44;;;7.70;78.22
18697;BME280;22617;43.690;27.956;2023-03-08T05:51:45;98082.31;;;7.97;78.79
18697;BME280;22617;43.690;27.956;2023-03-08T05:56:50;98087.25;;;8.26;77.62
18697;BME280;22617;43.690;27.956;2023-03-08T06:02:04;98094.03;;;8.44;77.12
18697;BME280;22617;43.690;27.956;2023-03-08T06:07:15;98103.22;;;8.77;76.21
18697;BME280;22617;43.690;27.956;2023-03-08T06:12:25;98106.28;;;9.09;76.76
18697;BME280;22617;43.690;27.956;2023-03-08T06:17:33;98098.75;;;9.53;75.39
18697;BME280;22617;43.690;27.956;2023-03-08T06:22:37;98104.09;;;9.98;73.85
18697;BME280;22617;43.690;27.956;2023-03-08T06:27:42;98099.97;;;10.40;72.49
18697;BME280;22617;43.690;27.956;2023-03-08T06:32:55;98108.03;;;10.74;72.14
18697;BME280;22617;43.690;27.956;2023-03-08T06:37:59;98104.97;;;10.97;71.12
18697;BME280;22617;43.690;27.956;2023-03-08T06:43:04;98115.88;;;11.15;70.41
18697;BME280;22617;43.690;27.956;2023-03-08T06:48:08;98113.91;;;11.26;70.24
18697;BME280;22617;43.690;27.956;2023-03-08T06:53:12;98108.97;;;11.53;69.90
18697;BME280;22617;43.690;27.956;2023-03-08T06:58:28;98109.47;;;11.70;69.72
18697;BME280;22617;43.690;27.956;2023-03-08T07:03:32;98112.78;;;12.13;69.14
18697;BME280;22617;43.690;27.956;2023-03-08T07:08:37;98122.97;;;12.58;67.86
18697;BME280;22617;43.690;27.956;2023-03-08T07:13:41;98128.16;;;12.92;66.96
18697;BME280;22617;43.690;27.956;2023-03-08T07:18:45;98130.72;;;13.26;66.28
18697;BME280;22617;43.690;27.956;2023-03-08T07:23:50;98128.38;;;13.75;64.78
18697;BME280;22617;43.690;27.956;2023-03-08T07:28:55;98113.78;;;14.22;63.56
18697;BME280;22617;43.690;27.956;2023-03-08T07:33:59;98121.63;;;14.49;61.31
18697;BME280;22617;43.690;27.956;2023-03-08T07:39:03;98122.16;;;14.84;60.55
18697;BME280;22617;43.690;27.956;2023-03-08T07:44:08;98128.59;;;15.01;59.33
18697;BME280;22617;43.690;27.956;2023-03-08T07:49:11;98127.84;;;15.20;59.62
18697;BME280;22617;43.690;27.956;2023-03-08T07:54:14;98126.34;;;15.61;56.99
18697;BME280;22617;43.690;27.956;2023-03-08T07:59:21;98128.25;;;15.80;57.31
18697;BME280;22617;43.690;27.956;2023-03-08T08:04:24;98136.81;;;16.28;57.83
18697;BME280;22617;43.690;27.956;2023-03-08T08:09:28;98141.97;;;16.51;55.47
18697;BME280;22617;43.690;27.956;2023-03-08T08:14:32;98143.75;;;16.51;54.68
18697;BME280;22617;43.690;27.956;2023-03-08T08:19:37;98130.72;;;16.70;53.43
18697;BME280;22617;43.690;27.956;2023-03-08T08:24:41;98148.81;;;16.97;50.66
18697;BME280;22617;43.690;27.956;2023-03-08T08:29:46;98154.00;;;16.79;50.54
18697;BME280;22617;43.690;27.956;2023-03-08T08:34:51;98151.00;;;16.88;49.94
18697;BME280;22617;43.690;27.956;2023-03-08T08:39:55;98149.75;;;17.35;50.25
18697;BME280;22617;43.690;27.956;2023-03-08T08:45:00;98153.50;;;17.50;50.09
18697;BME280;22617;43.690;27.956;2023-03-08T08:50:04;98144.84;;;17.08;50.97
18697;BME280;22617;43.690;27.956;2023-03-08T08:55:08;98148.88;;;17.16;51.36
18697;BME280;22617;43.690;27.956;2023-03-08T09:00:15;98163.38;;;17.45;51.21
18697;BME280;22617;43.690;27.956;2023-03-08T09:05:20;98140.03;;;17.75;51.44
18697;BME280;22617;43.690;27.956;2023-03-08T09:10:24;98127.03;;;18.26;49.00
18697;BME280;22617;43.690;27.956;2023-03-08T09:15:29;98128.88;;;18.60;48.78
18697;BME280;22617;43.690;27.956;2023-03-08T09:20:33;98117.59;;;19.08;46.93
18697;BME280;22617;43.690;27.956;2023-03-08T09:25:36;98123.53;;;19.46;46.06
18697;BME280;22617;43.690;27.956;2023-03-08T09:30:41;98122.31;;;19.52;45.73
18697;BME280;22617;43.690;27.956;2023-03-08T09:35:54;98122.53;;;19.32;45.07
18697;BME280;22617;43.690;27.956;2023-03-08T09:41:13;98127.81;;;19.14;43.41
18697;BME280;22617;43.690;27.956;2023-03-08T09:46:29;98117.22;;;19.32;43.54
18697;BME280;22617;43.690;27.956;2023-03-08T09:51:37;98105.13;;;19.43;44.13
18697;BME280;22617;43.690;27.956;2023-03-08T09:56:45;98118.00;;;19.82;42.23
18697;BME280;22617;43.690;27.956;2023-03-08T10:01:57;98109.47;;;20.09;42.88
18697;BME280;22617;43.690;27.956;2023-03-08T10:07:14;98109.63;;;20.37;42.21
18697;BME280;22617;43.690;27.956;2023-03-08T10:12:26;98106.75;;;19.94;42.66
18697;BME280;22617;43.690;27.956;2023-03-08T10:17:39;98112.88;;;20.11;42.14
18697;BME280;22617;43.690;27.956;2023-03-08T10:22:52;98091.03;;;20.97;40.64
18697;BME280;22617;43.690;27.956;2023-03-08T10:27:59;98095.81;;;21.20;39.31
18697;BME280;22617;43.690;27.956;2023-03-08T11:52:21;98044.75;;;20.60;39.76
18697;BME280;22617;43.690;27.956;2023-03-08T12:12:15;98029.47;;;20.49;39.54
18697;BME280;22617;43.690;27.956;2023-03-08T12:17:24;98032.28;;;20.76;38.77
18697;BME280;22617;43.690;27.956;2023-03-08T12:22:41;98034.34;;;20.11;38.31
18697;BME280;22617;43.690;27.956;2023-03-08T12:27:50;98030.63;;;19.99;38.72
18697;BME280;22617;43.690;27.956;2023-03-08T12:32:56;98036.66;;;20.33;38.45
18697;BME280;22617;43.690;27.956;2023-03-08T12:38:04;98031.47;;;20.00;39.54
18697;BME280;22617;43.690;27.956;2023-03-08T12:43:12;98031.66;;;19.81;39.62
18697;BME280;22617;43.690;27.956;2023-03-08T12:48:20;98034.84;;;19.24;40.52
18697;BME280;22617;43.690;27.956;2023-03-08T12:53:29;98027.44;;;18.99;40.30
18697;BME280;22617;43.690;27.956;2023-03-08T12:58:38;98043.56;;;18.60;41.09
18697;BME280;22617;43.690;27.956;2023-03-08T13:03:42;98040.50;;;18.33;42.28
18697;BME280;22617;43.690;27.956;2023-03-08T13:08:49;98040.91;;;18.43;42.50
18697;BME280;22617;43.690;27.956;2023-03-08T13:13:57;98037.44;;;18.59;40.91
18697;BME280;22617;43.690;27.956;2023-03-08T13:19:17;98028.31;;;18.82;41.89
18697;BME280;22617;43.690;27.956;2023-03-08T13:24:33;98021.66;;;19.39;40.47
18697;BME280;22617;43.690;27.956;2023-03-08T13:29:42;98016.81;;;19.16;41.59
18697;BME280;22617;43.690;27.956;2023-03-08T13:34:57;98011.16;;;19.06;40.36
18697;BME280;22617;43.690;27.956;2023-03-08T13:40:01;98014.19;;;18.83;40.94
18697;BME280;22617;43.690;27.956;2023-03-08T13:45:16;98017.44;;;18.71;41.17
18697;BME280;22617;43.690;27.956;2023-03-08T13:50:23;98017.13;;;18.94;39.96
18697;BME280;22617;43.690;27.956;2023-03-08T13:55:32;98023.25;;;19.10;40.06
18697;BME280;22617;43.690;27.956;2023-03-08T14:00:38;98014.31;;;18.80;40.77
18697;BME280;22617;43.690;27.956;2023-03-08T14:05:42;98016.53;;;18.20;41.33
18697;BME280;22617;43.690;27.956;2023-03-08T14:10:48;98012.50;;;18.48;41.05
18697;BME280;22617;43.690;27.956;2023-03-08T14:15:57;98009.09;;;18.63;40.34
18697;BME280;22617;43.690;27.956;2023-03-08T14:21:05;98018.88;;;18.26;40.30
18697;BME280;22617;43.690;27.956;2023-03-08T14:26:23;98020.50;;;18.29;40.74
18697;BME280;22617;43.690;27.956;2023-03-08T14:31:29;98015.75;;;18.53;40.56
18697;BME280;22617;43.690;27.956;2023-03-08T14:36:34;98008.00;;;18.67;41.77
18697;BME280;22617;43.690;27.956;2023-03-08T14:41:39;98016.53;;;18.38;40.92
18697;BME280;22617;43.690;27.956;2023-03-08T14:46:48;98021.03;;;17.84;41.17
18697;BME280;22617;43.690;27.956;2023-03-08T14:52:18;98016.94;;;17.60;41.63
18697;BME280;22617;43.690;27.956;2023-03-08T14:57:27;98032.75;;;17.60;41.47
18697;BME280;22617;43.690;27.956;2023-03-08T15:02:39;98036.72;;;17.68;41.02
18697;BME280;22617;43.690;27.956;2023-03-08T15:07:46;98032.44;;;17.66;41.25
18697;BME280;22617;43.690;27.956;2023-03-08T15:12:52;98031.78;;;17.61;41.25
18697;BME280;22617;43.690;27.956;2023-03-08T15:18:02;98031.22;;;17.35;43.16
18697;BME280;22617;43.690;27.956;2023-03-08T15:23:07;98043.53;;;17.16;43.26
18697;BME280;22617;43.690;27.956;2023-03-08T15:28:21;98048.69;;;16.99;43.48
18697;BME280;22617;43.690;27.956;2023-03-08T15:33:30;98045.03;;;16.64;44.51
18697;BME280;22617;43.690;27.956;2023-03-08T15:38:34;98053.53;;;16.29;43.80
18697;BME280;22617;43.690;27.956;2023-03-08T15:43:38;98054.13;;;15.93;43.38
18697;BME280;22617;43.690;27.956;2023-03-08T15:48:43;98053.47;;;15.66;43.64
18697;BME280;22617;43.690;27.956;2023-03-08T15:53:47;98056.84;;;15.47;43.92
18697;BME280;22617;43.690;27.956;2023-03-08T15:58:52;98060.00;;;15.33;44.31
18697;BME280;22617;43.690;27.956;2023-03-08T16:03:58;98072.28;;;15.09;43.87
18697;BME280;22617;43.690;27.956;2023-03-08T16:09:02;98067.97;;;14.83;44.65
18697;BME280;22617;43.690;27.956;2023-03-08T16:14:06;98081.09;;;14.59;45.26
18697;BME280;22617;43.690;27.956;2023-03-08T16:19:11;98088.00;;;14.35;45.61
18697;BME280;22617;43.690;27.956;2023-03-08T16:24:15;98090.44;;;14.15;46.66
18697;BME280;22617;43.690;27.956;2023-03-08T16:29:20;98103.09;;;14.01;46.76
18697;BME280;22617;43.690;27.956;2023-03-08T16:34:27;98103.63;;;13.85;47.62
18697;BME280;22617;43.690;27.956;2023-03-08T16:39:32;98102.41;;;13.68;48.22
18697;BME280;22617;43.690;27.956;2023-03-08T16:44:40;98110.63;;;13.57;48.54
18697;BME280;22617;43.690;27.956;2023-03-08T16:49:46;98112.09;;;13.36;48.96
18697;BME280;22617;43.690;27.956;2023-03-08T16:54:50;98112.25;;;13.32;49.16
18697;BME280;22617;43.690;27.956;2023-03-08T16:59:54;98125.31;;;13.32;49.05
18697;BME280;22617;43.690;27.956;2023-03-08T17:04:59;98131.56;;;13.28;48.74
18697;BME280;22617;43.690;27.956;2023-03-08T17:10:06;98130.91;;;13.20;48.71
18697;BME280;22617;43.690;27.956;2023-03-08T17:15:11;98148.69;;;13.07;48.76
18697;BME280;22617;43.690;27.956;2023-03-08T17:20:17;98148.56;;;12.79;49.35
18697;BME280;22617;43.690;27.956;2023-03-08T17:25:24;98162.88;;;12.66;49.92
18697;BME280;22617;43.690;27.956;2023-03-08T17:30:28;98156.81;;;12.64;49.51
18697;BME280;22617;43.690;27.956;2023-03-08T17:35:37;98161.19;;;12.63;49.10
18697;BME280;22617;43.690;27.956;2023-03-08T17:40:42;98169.34;;;12.51;49.51
18697;BME280;22617;43.690;27.956;2023-03-08T17:45:55;98167.78;;;12.44;49.32
18697;BME280;22617;43.690;27.956;2023-03-08T17:57:39;98162.66;;;12.40;49.99
18697;BME280;22617;43.690;27.956;2023-03-08T18:02:43;98167.69;;;12.47;49.82
18697;BME280;22617;43.690;27.956;2023-03-08T18:07:47;98168.63;;;12.45;50.04
18697;BME280;22617;43.690;27.956;2023-03-08T18:12:52;98163.81;;;12.28;50.39
18697;BME280;22617;43.690;27.956;2023-03-08T18:17:55;98171.69;;;12.27;50.55
18697;BME280;22617;43.690;27.956;2023-03-08T18:22:59;98171.06;;;12.17;51.18
18697;BME280;22617;43.690;27.956;2023-03-08T18:28:04;98176.56;;;11.65;51.80
18697;BME280;22617;43.690;27.956;2023-03-08T18:33:07;98193.03;;;11.27;51.64
18697;BME280;22617;43.690;27.956;2023-03-08T18:38:12;98193.63;;;10.93;53.08
18697;BME280;22617;43.690;27.956;2023-03-08T18:43:17;98193.34;;;10.63;52.97
18697;BME280;22617;43.690;27.956;2023-03-08T18:48:22;98199.84;;;10.37;53.73
18697;BME280;22617;43.690;27.956;2023-03-08T18:53:26;98200.78;;;10.33;54.12
18697;BME280;22617;43.690;27.956;2023-03-08T18:58:31;98196.59;;;10.23;53.25
18697;BME280;22617;43.690;27.956;2023-03-08T19:03:35;98217.50;;;10.19;54.41
18697;BME280;22617;43.690;27.956;2023-03-08T19:08:39;98211.47;;;10.17;54.46
18697;BME280;22617;43.690;27.956;2023-03-08T19:13:44;98211.53;;;10.09;55.12
18697;BME280;22617;43.690;27.956;2023-03-08T19:18:49;98209.31;;;10.43;54.52
18697;BME280;22617;43.690;27.956;2023-03-08T19:23:54;98214.84;;;10.22;55.23
18697;BME280;22617;43.690;27.956;2023-03-08T19:29:00;98217.44;;;10.23;55.34
18697;BME280;22617;43.690;27.956;2023-03-08T19:34:04;98214.88;;;10.20;55.84
18697;BME280;22617;43.690;27.956;2023-03-08T19:39:09;98219.22;;;10.21;56.09
18697;BME280;22617;43.690;27.956;2023-03-08T19:44:17;98222.81;;;10.10;57.15
18697;BME280;22617;43.690;27.956;2023-03-08T19:49:23;98207.50;;;10.46;56.45
18697;BME280;22617;43.690;27.956;2023-03-08T19:54:28;98215.50;;;10.36;56.16
18697;BME280;22617;43.690;27.956;2023-03-08T19:59:33;98225.31;;;10.17;56.81
18697;BME280;22617;43.690;27.956;2023-03-08T20:04:38;98223.75;;;10.07;57.28
18697;BME280;22617;43.690;27.956;2023-03-08T20:09:42;98214.09;;;10.17;57.36
18697;BME280;22617;43.690;27.956;2023-03-08T20:14:47;98208.72;;;10.26;56.80
18697;BME280;22617;43.690;27.956;2023-03-08T20:19:50;98210.53;;;10.21;57.33
18697;BME280;22617;43.690;27.956;2023-03-08T20:24:57;98208.72;;;10.26;57.64
18697;BME280;22617;43.690;27.956;2023-03-08T20:30:05;98207.72;;;10.33;57.19
18697;BME280;22617;43.690;27.956;2023-03-08T20:35:12;98202.50;;;10.36;57.12
18697;BME280;22617;43.690;27.956;2023-03-08T20:40:16;98201.66;;;10.34;57.01
18697;BME280;22617;43.690;27.956;2023-03-08T20:45:23;98192.97;;;10.33;56.69
18697;BME280;22617;43.690;27.956;2023-03-08T20:50:27;98198.34;;;10.23;56.98
18697;BME280;22617;43.690;27.956;2023-03-08T20:55:30;98194.94;;;10.19;56.57
18697;BME280;22617;43.690;27.956;2023-03-08T21:00:36;98197.72;;;10.04;57.28
18697;BME280;22617;43.690;27.956;2023-03-08T21:05:42;98201.34;;;9.94;57.64
18697;BME280;22617;43.690;27.956;2023-03-08T21:10:46;98197.81;;;9.98;57.91
18697;BME280;22617;43.690;27.956;2023-03-08T21:15:59;98203.88;;;10.00;56.93
18697;BME280;22617;43.690;27.956;2023-03-08T21:21:03;98190.66;;;10.12;56.50
18697;BME280;22617;43.690;27.956;2023-03-08T21:26:06;98202.44;;;10.37;56.07
18697;BME280;22617;43.690;27.956;2023-03-08T21:31:11;98200.84;;;10.30;56.34
18697;BME280;22617;43.690;27.956;2023-03-08T21:36:16;98206.22;;;10.20;56.93
18697;BME280;22617;43.690;27.956;2023-03-08T21:41:20;98208.88;;;10.17;56.83
18697;BME280;22617;43.690;27.956;2023-03-08T21:46:26;98206.25;;;10.14;56.95
18697;BME280;22617;43.690;27.956;2023-03-08T21:51:30;98200.91;;;10.26;56.75
18697;BME280;22617;43.690;27.956;2023-03-08T21:56:34;98201.63;;;10.35;56.71
18697;BME280;22617;43.690;27.956;2023-03-08T22:01:39;98196.44;;;10.32;56.93
18697;BME280;22617;43.690;27.956;2023-03-08T22:06:45;98194.06;;;10.20;57.48
18697;BME280;22617;43.690;27.956;2023-03-08T22:11:48;98195.84;;;10.15;56.96
18697;BME280;22617;43.690;27.956;2023-03-08T22:16:53;98195.84;;;10.14;56.91
18697;BME280;22617;43.690;27.956;2023-03-08T22:21:57;98186.25;;;10.19;57.71
18697;BME280;22617;43.690;27.956;2023-03-08T22:27:01;98183.63;;;10.20;57.32
18697;BME280;22617;43.690;27.956;2023-03-08T22:32:07;98186.88;;;10.34;56.86
18697;BME280;22617;43.690;27.956;2023-03-08T22:37:11;98184.44;;;10.22;57.42
18697;BME280;22617;43.690;27.956;2023-03-08T22:42:14;98177.69;;;10.11;58.05
18697;BME280;22617;43.690;27.956;2023-03-08T22:47:19;98172.44;;;10.12;58.40
18697;BME280;22617;43.690;27.956;2023-03-08T22:52:23;98169.00;;;10.10;58.98
18697;BME280;22617;43.690;27.956;2023-03-08T22:57:26;98163.78;;;10.12;58.76
18697;BME280;22617;43.690;27.956;2023-03-08T23:02:31;98156.66;;;10.23;58.88
18697;BME280;22617;43.690;27.956;2023-03-08T23:07:35;98154.03;;;10.26;58.95
18697;BME280;22617;43.690;27.956;2023-03-08T23:12:39;98148.84;;;10.24;58.58
18697;BME280;22617;43.690;27.956;2023-03-08T23:17:44;98147.03;;;10.28;57.40
18697;BME280;22617;43.690;27.956;2023-03-08T23:22:48;98149.56;;;10.32;57.19
18697;BME280;22617;43.690;27.956;2023-03-08T23:27:52;98137.50;;;10.28;57.90
18697;BME280;22617;43.690;27.956;2023-03-08T23:32:57;98139.16;;;10.32;58.14
18697;BME280;22617;43.690;27.956;2023-03-08T23:38:01;98138.28;;;10.33;58.67
18697;BME280;22617;43.690;27.956;2023-03-08T23:43:04;98131.31;;;10.35;57.90
18697;BME280;22617;43.690;27.956;2023-03-08T23:48:09;98125.81;;;10.50;57.90
18697;BME280;22617;43.690;27.956;2023-03-08T23:53:13;98125.72;;;10.55;58.49
18697;BME280;22617;43.690;27.956;2023-03-08T23:58:16;98111.59;;;10.68;58.66
